createdAt,value
2019-03-29T00:02:45.231Z,8.30
2019-03-29T00:05:33.872Z,8.30
2019-03-29T00:08:22.308Z,8.20
2019-03-29T00:11:10.567Z,8.20
2019-03-29T00:13:59.671Z,8.10
2019-03-29T00:16:48.280Z,8.00
2019-03-29T00:19:37.094Z,8.00
2019-03-29T00:22:26.283Z,7.90
2019-03-29T00:25:15.208Z,7.90
2019-03-29T00:28:03.815Z,8.00
2019-03-29T00:30:52.992Z,7.80
2019-03-29T00:33:41.294Z,7.80
2019-03-29T00:36:29.959Z,7.70
2019-03-29T00:39:18.914Z,7.70
2019-03-29T00:42:08.212Z,7.70
2019-03-29T00:44:56.885Z,7.70
2019-03-29T00:47:45.660Z,7.60
2019-03-29T00:50:34.788Z,7.50
2019-03-29T00:53:23.727Z,7.50
2019-03-29T00:56:12.985Z,7.40
2019-03-29T00:59:01.815Z,7.40
2019-03-29T01:01:50.368Z,7.50
2019-03-29T01:04:38.822Z,7.40
2019-03-29T01:07:27.891Z,7.40
2019-03-29T01:10:17.284Z,7.40
2019-03-29T01:13:05.905Z,7.30
2019-03-29T01:15:54.005Z,7.30
2019-03-29T01:18:42.447Z,7.30
2019-03-29T01:21:30.977Z,7.30
2019-03-29T01:24:19.856Z,7.30
2019-03-29T01:27:08.020Z,7.30
2019-03-29T01:29:56.914Z,7.30
2019-03-29T01:32:45.759Z,7.20
2019-03-29T01:35:35.958Z,7.10
2019-03-29T01:38:25.644Z,7.00
2019-03-29T01:41:14.888Z,6.90
2019-03-29T01:44:03.582Z,6.80
2019-03-29T01:46:51.867Z,6.80
2019-03-29T01:49:40.216Z,6.90
2019-03-29T01:52:31.492Z,6.80
2019-03-29T01:55:20.388Z,6.90
2019-03-29T01:58:08.897Z,6.90
2019-03-29T02:00:57.636Z,6.90
2019-03-29T02:03:46.941Z,6.80
2019-03-29T02:06:35.902Z,6.80
2019-03-29T02:09:25.044Z,6.80
2019-03-29T02:12:13.931Z,6.70
2019-03-29T02:15:03.289Z,6.60
2019-03-29T02:17:52.120Z,6.60
2019-03-29T02:20:40.701Z,6.50
2019-03-29T02:23:28.872Z,6.40
2019-03-29T02:26:17.772Z,6.40
2019-03-29T02:29:06.882Z,6.40
2019-03-29T02:31:56.468Z,6.50
2019-03-29T02:34:45.541Z,6.60
2019-03-29T02:37:33.869Z,6.50
2019-03-29T02:40:22.828Z,6.40
2019-03-29T02:43:11.881Z,6.40
2019-03-29T02:46:00.904Z,6.40
2019-03-29T02:48:49.253Z,6.40
2019-03-29T02:51:38.421Z,6.40
2019-03-29T02:54:27.107Z,6.30
2019-03-29T02:57:15.197Z,6.20
2019-03-29T03:00:04.638Z,6.20
2019-03-29T03:02:52.999Z,6.20
2019-03-29T03:05:41.963Z,6.20
2019-03-29T03:08:32.870Z,6.10
2019-03-29T03:11:20.756Z,6.00
2019-03-29T03:14:09.030Z,6.10
2019-03-29T03:16:58.211Z,6.10
2019-03-29T03:19:46.347Z,6.10
2019-03-29T03:22:34.980Z,6.10
2019-03-29T03:25:23.072Z,6.00
2019-03-29T03:28:12.294Z,6.00
2019-03-29T03:31:00.938Z,5.90
2019-03-29T03:33:49.496Z,5.90
2019-03-29T03:36:38.170Z,5.80
2019-03-29T03:39:32.070Z,5.80
2019-03-29T03:42:17.214Z,5.70
2019-03-29T03:45:06.397Z,5.80
2019-03-29T03:47:55.386Z,5.80
2019-03-29T03:50:44.537Z,5.80
2019-03-29T03:53:32.968Z,5.80
2019-03-29T03:56:22.584Z,5.90
2019-03-29T03:59:11.036Z,5.90
2019-03-29T04:02:00.124Z,5.90
2019-03-29T04:04:48.680Z,5.80
2019-03-29T04:07:36.855Z,5.80
2019-03-29T04:10:25.004Z,5.80
2019-03-29T04:13:13.309Z,5.60
2019-03-29T04:16:02.380Z,5.50
2019-03-29T04:18:51.258Z,5.50
2019-03-29T04:21:39.867Z,5.40
2019-03-29T04:24:28.633Z,5.50
2019-03-29T04:27:17.434Z,5.50
2019-03-29T04:30:06.913Z,5.60
2019-03-29T04:32:56.084Z,5.60
2019-03-29T04:35:45.168Z,5.60
2019-03-29T04:38:33.239Z,5.40
2019-03-29T04:41:22.471Z,5.40
2019-03-29T04:44:11.481Z,5.60
2019-03-29T04:47:00.225Z,5.50
2019-03-29T04:49:49.163Z,5.50
2019-03-29T04:52:38.225Z,5.50
2019-03-29T04:55:27.284Z,5.50
2019-03-29T04:58:15.838Z,5.50
2019-03-29T05:01:04.683Z,5.40
2019-03-29T05:03:52.848Z,5.40
2019-03-29T05:06:41.035Z,5.40
2019-03-29T05:09:30.492Z,5.20
2019-03-29T05:12:19.337Z,5.30
2019-03-29T05:15:08.051Z,5.30
2019-03-29T05:17:56.286Z,5.30
2019-03-29T05:20:44.866Z,5.30
2019-03-29T05:23:33.409Z,5.30
2019-03-29T05:26:25.139Z,5.20
2019-03-29T05:29:11.831Z,5.10
2019-03-29T05:32:00.134Z,5.20
2019-03-29T05:34:48.932Z,5.30
2019-03-29T05:37:38.059Z,5.30
2019-03-29T05:40:34.684Z,5.30
2019-03-29T05:43:17.954Z,5.30
2019-03-29T05:46:06.646Z,5.30
2019-03-29T05:48:55.633Z,5.40
2019-03-29T05:51:44.232Z,5.40
2019-03-29T05:54:33.232Z,5.50
2019-03-29T05:57:22.247Z,5.60
2019-03-29T06:00:13.250Z,5.70
2019-03-29T06:03:02.345Z,5.80
2019-03-29T06:05:51.341Z,5.90
2019-03-29T06:08:39.593Z,5.90
2019-03-29T06:11:28.364Z,6.00
2019-03-29T06:14:16.453Z,6.10
2019-03-29T06:17:05.132Z,6.20
2019-03-29T06:19:53.326Z,6.30
2019-03-29T06:22:42.354Z,6.40
2019-03-29T06:25:31.408Z,6.50
2019-03-29T06:28:19.776Z,6.50
2019-03-29T06:31:08.816Z,6.60
2019-03-29T06:33:58.354Z,6.80
2019-03-29T06:36:47.529Z,6.90
2019-03-29T06:39:36.342Z,7.10
2019-03-29T06:42:25.078Z,7.20
2019-03-29T06:45:13.730Z,7.30
2019-03-29T06:48:01.969Z,7.40
2019-03-29T06:50:50.347Z,7.60
2019-03-29T06:53:38.985Z,7.70
2019-03-29T06:56:27.032Z,7.70
2019-03-29T06:59:15.695Z,7.90
2019-03-29T07:02:04.988Z,8.00
2019-03-29T07:04:53.489Z,8.10
2019-03-29T07:07:44.582Z,8.20
2019-03-29T07:10:32.047Z,8.40
2019-03-29T07:13:20.212Z,8.50
2019-03-29T07:16:09.439Z,8.60
2019-03-29T07:18:57.963Z,9.10
2019-03-29T07:21:46.508Z,9.80
2019-03-29T07:24:34.511Z,11.20
2019-03-29T07:27:23.731Z,12.30
2019-03-29T07:30:13.412Z,13.00
2019-03-29T07:33:01.905Z,13.20
2019-03-29T07:35:50.732Z,13.30
2019-03-29T07:38:39.209Z,13.20
2019-03-29T07:41:32.243Z,13.00
2019-03-29T07:44:17.903Z,12.60
2019-03-29T07:47:06.827Z,12.40
2019-03-29T07:49:55.990Z,12.50
2019-03-29T07:52:44.513Z,12.70
2019-03-29T07:55:33.107Z,13.00
2019-03-29T07:58:21.619Z,12.90
2019-03-29T08:01:10.217Z,12.80
2019-03-29T08:03:59.026Z,12.70
2019-03-29T08:06:48.035Z,12.70
2019-03-29T08:09:36.527Z,12.90
2019-03-29T08:12:25.707Z,13.00
2019-03-29T08:15:14.901Z,13.00
2019-03-29T08:18:03.417Z,13.70
2019-03-29T08:20:52.675Z,14.30
2019-03-29T08:23:41.448Z,14.90
2019-03-29T08:26:40.696Z,15.30
2019-03-29T08:29:31.328Z,15.20
2019-03-29T08:32:19.185Z,16.00
2019-03-29T08:35:07.837Z,16.10
2019-03-29T08:37:57.067Z,16.00
2019-03-29T08:40:46.184Z,16.30
2019-03-29T08:43:34.932Z,16.50
2019-03-29T08:46:23.274Z,16.50
2019-03-29T08:49:12.342Z,16.80
2019-03-29T08:52:00.893Z,17.30
2019-03-29T08:54:51.175Z,18.10
2019-03-29T08:57:40.252Z,18.00
2019-03-29T09:00:33.603Z,18.20
2019-03-29T09:03:22.052Z,18.40
2019-03-29T09:06:10.332Z,18.10
2019-03-29T09:08:59.823Z,18.60
2019-03-29T09:11:48.708Z,18.80
2019-03-29T09:14:37.560Z,19.70
2019-03-29T09:17:26.158Z,20.50
2019-03-29T09:20:14.585Z,21.20
2019-03-29T09:23:03.204Z,21.70
2019-03-29T09:25:52.081Z,21.10
2019-03-29T09:28:41.249Z,22.00
2019-03-29T09:31:29.461Z,21.50
2019-03-29T09:34:17.976Z,21.10
2019-03-29T09:37:06.430Z,22.20
2019-03-29T09:39:55.095Z,22.50
2019-03-29T09:42:44.447Z,22.50
2019-03-29T09:45:32.904Z,23.10
2019-03-29T09:48:22.187Z,23.10
2019-03-29T09:51:10.497Z,23.10
2019-03-29T09:53:59.047Z,23.30
2019-03-29T09:56:48.484Z,22.50
2019-03-29T09:59:37.111Z,22.20
2019-03-29T10:02:26.103Z,21.20
2019-03-29T10:05:14.879Z,21.20
2019-03-29T10:08:04.154Z,20.20
2019-03-29T10:10:52.414Z,22.00
2019-03-29T10:13:41.175Z,22.70
2019-03-29T10:16:29.238Z,23.30
2019-03-29T10:19:17.654Z,22.60
2019-03-29T10:22:06.689Z,23.90
2019-03-29T10:24:55.327Z,24.50
2019-03-29T10:27:43.839Z,25.40
2019-03-29T10:30:40.874Z,25.40
2019-03-29T10:33:29.267Z,25.20
2019-03-29T10:36:17.847Z,23.40
2019-03-29T10:39:11.743Z,24.10
2019-03-29T10:41:59.860Z,26.00
2019-03-29T10:44:49.579Z,27.50
2019-03-29T10:47:43.647Z,27.60
2019-03-29T10:50:28.876Z,27.80
2019-03-29T10:53:17.197Z,27.10
2019-03-29T10:56:06.044Z,26.70
2019-03-29T10:58:54.950Z,25.10
2019-03-29T11:01:43.791Z,24.80
2019-03-29T11:04:32.631Z,25.70
2019-03-29T11:07:21.624Z,25.30
2019-03-29T11:10:15.045Z,25.10
2019-03-29T11:13:12.367Z,24.50
2019-03-29T11:15:53.879Z,24.90
2019-03-29T11:18:45.680Z,27.10
2019-03-29T11:21:32.790Z,27.40
2019-03-29T11:24:21.623Z,28.70
2019-03-29T11:27:10.196Z,27.40
2019-03-29T11:29:58.903Z,27.10
2019-03-29T11:32:47.984Z,27.70
2019-03-29T11:35:37.071Z,27.80
2019-03-29T11:38:25.183Z,27.60
2019-03-29T11:41:14.333Z,26.60
2019-03-29T11:44:03.395Z,26.10
2019-03-29T11:46:52.270Z,27.10
2019-03-29T11:49:40.839Z,28.00
2019-03-29T11:52:29.901Z,27.80
2019-03-29T11:55:18.560Z,27.70
2019-03-29T11:58:07.715Z,29.20
2019-03-29T12:00:56.592Z,29.60
2019-03-29T12:03:45.430Z,29.40
2019-03-29T12:06:34.872Z,29.60
2019-03-29T12:09:23.008Z,29.60
2019-03-29T12:12:11.266Z,30.60
2019-03-29T12:14:59.531Z,30.50
2019-03-29T12:17:48.312Z,30.60
2019-03-29T12:20:37.608Z,29.20
2019-03-29T12:23:26.694Z,29.30
2019-03-29T12:26:15.155Z,28.80
2019-03-29T12:29:04.147Z,29.30
2019-03-29T12:31:53.044Z,28.80
2019-03-29T12:34:41.519Z,29.80
2019-03-29T12:37:30.108Z,30.30
2019-03-29T12:40:18.297Z,30.70
2019-03-29T12:43:06.861Z,28.90
2019-03-29T12:45:55.365Z,28.80
2019-03-29T12:48:43.928Z,29.00
2019-03-29T12:51:32.619Z,28.60
2019-03-29T12:54:21.033Z,29.10
2019-03-29T12:57:09.793Z,29.50
2019-03-29T12:59:58.416Z,29.20
2019-03-29T13:02:47.076Z,28.30
2019-03-29T13:05:35.295Z,29.30
2019-03-29T13:08:23.472Z,28.50
2019-03-29T13:11:12.286Z,28.80
2019-03-29T13:14:10.011Z,29.30
2019-03-29T13:16:50.718Z,29.50
2019-03-29T13:19:39.474Z,29.10
2019-03-29T13:22:28.066Z,28.80
2019-03-29T13:25:16.809Z,29.80
2019-03-29T13:28:05.700Z,29.20
2019-03-29T13:30:54.290Z,29.10
2019-03-29T13:33:42.737Z,29.80
2019-03-29T13:36:31.851Z,28.60
2019-03-29T13:39:21.096Z,29.30
2019-03-29T13:42:10.210Z,30.10
2019-03-29T13:44:59.012Z,30.60
2019-03-29T13:47:47.624Z,30.00
2019-03-29T13:50:35.691Z,29.40
2019-03-29T13:53:24.704Z,29.40
2019-03-29T13:56:13.294Z,29.00
2019-03-29T13:59:02.514Z,28.40
2019-03-29T14:01:50.814Z,28.00
2019-03-29T14:04:39.298Z,29.30
2019-03-29T14:07:27.906Z,29.20
2019-03-29T14:10:16.694Z,29.40
2019-03-29T14:13:05.947Z,29.20
2019-03-29T14:15:54.897Z,28.80
2019-03-29T14:18:43.997Z,28.60
2019-03-29T14:21:33.063Z,28.10
2019-03-29T14:24:21.786Z,28.80
2019-03-29T14:27:10.888Z,28.50
2019-03-29T14:30:04.742Z,29.00
2019-03-29T14:32:53.012Z,28.80
2019-03-29T14:35:41.636Z,28.50
2019-03-29T14:38:30.116Z,28.00
2019-03-29T14:41:18.884Z,28.10
2019-03-29T14:44:07.631Z,29.00
2019-03-29T14:46:56.096Z,29.20
2019-03-29T14:49:45.084Z,28.10
2019-03-29T14:52:33.920Z,28.30
2019-03-29T14:55:22.907Z,28.80
2019-03-29T14:58:11.932Z,28.40
2019-03-29T15:01:00.566Z,29.10
2019-03-29T15:03:49.036Z,28.00
2019-03-29T15:06:37.464Z,28.60
2019-03-29T15:09:26.354Z,28.70
2019-03-29T15:12:15.341Z,28.90
2019-03-29T15:15:06.470Z,28.80
2019-03-29T15:17:55.009Z,28.20
2019-03-29T15:20:53.436Z,27.30
2019-03-29T15:23:34.121Z,27.00
2019-03-29T15:26:23.424Z,27.10
2019-03-29T15:29:12.542Z,27.40
2019-03-29T15:32:01.502Z,27.60
2019-03-29T15:34:50.189Z,26.90
2019-03-29T15:37:38.846Z,27.10
2019-03-29T15:40:27.327Z,27.10
2019-03-29T15:43:16.122Z,26.90
2019-03-29T15:46:05.083Z,27.40
2019-03-29T15:48:54.052Z,27.40
2019-03-29T15:51:42.656Z,27.10
2019-03-29T15:54:30.816Z,25.70
2019-03-29T15:57:19.307Z,26.00
2019-03-29T16:00:08.243Z,26.00
2019-03-29T16:02:56.929Z,26.40
2019-03-29T16:05:48.357Z,26.30
2019-03-29T16:08:35.298Z,25.60
2019-03-29T16:11:23.476Z,25.20
2019-03-29T16:14:11.572Z,24.80
2019-03-29T16:17:00.034Z,24.10
2019-03-29T16:19:48.201Z,23.10
2019-03-29T16:22:36.355Z,22.40
2019-03-29T16:25:24.644Z,21.90
2019-03-29T16:28:12.773Z,21.10
2019-03-29T16:31:01.480Z,20.70
2019-03-29T16:33:50.228Z,20.30
2019-03-29T16:36:38.344Z,20.20
2019-03-29T16:39:27.673Z,20.10
2019-03-29T16:42:16.832Z,19.90
2019-03-29T16:45:05.766Z,19.80
2019-03-29T16:47:54.465Z,19.60
2019-03-29T16:50:42.887Z,19.50
2019-03-29T16:53:31.986Z,19.40
2019-03-29T16:56:20.630Z,19.20
2019-03-29T16:59:09.788Z,19.00
2019-03-29T17:01:58.266Z,18.90
2019-03-29T17:04:46.456Z,18.80
2019-03-29T17:07:34.972Z,18.70
2019-03-29T17:10:23.651Z,18.40
2019-03-29T17:13:12.487Z,18.20
2019-03-29T17:16:02.342Z,18.10
2019-03-29T17:18:51.293Z,17.90
2019-03-29T17:21:39.601Z,17.70
2019-03-29T17:24:28.102Z,17.60
2019-03-29T17:27:16.211Z,17.50
2019-03-29T17:30:07.666Z,17.40
2019-03-29T17:32:56.012Z,17.20
2019-03-29T17:35:44.696Z,17.10
2019-03-29T17:38:33.102Z,17.10
2019-03-29T17:41:22.437Z,17.00
2019-03-29T17:44:10.834Z,16.90
2019-03-29T17:47:00.132Z,16.80
2019-03-29T17:49:48.950Z,16.70
2019-03-29T17:52:37.529Z,16.60
2019-03-29T17:55:26.223Z,16.50
2019-03-29T17:58:14.689Z,16.30
2019-03-29T18:01:03.199Z,16.20
2019-03-29T18:03:52.512Z,16.20
2019-03-29T18:06:41.618Z,16.10
2019-03-29T18:09:30.355Z,15.90
2019-03-29T18:12:19.140Z,15.90
2019-03-29T18:15:09.219Z,15.80
2019-03-29T18:17:57.947Z,15.70
2019-03-29T18:20:46.787Z,15.60
2019-03-29T18:23:35.435Z,15.40
2019-03-29T18:26:24.582Z,15.40
2019-03-29T18:29:13.527Z,15.30
2019-03-29T18:32:02.551Z,15.20
2019-03-29T18:34:51.512Z,15.10
2019-03-29T18:37:40.215Z,15.10
2019-03-29T18:40:29.173Z,15.10
2019-03-29T18:43:18.001Z,15.20
2019-03-29T18:46:06.069Z,15.10
2019-03-29T18:48:54.982Z,15.00
2019-03-29T18:51:43.339Z,14.90
2019-03-29T18:54:32.251Z,14.80
2019-03-29T18:57:20.315Z,14.70
2019-03-29T19:00:09.352Z,14.60
2019-03-29T19:02:58.670Z,14.50
2019-03-29T19:05:46.711Z,14.40
2019-03-29T19:08:35.366Z,14.40
2019-03-29T19:11:24.133Z,14.20
2019-03-29T19:14:13.291Z,14.20
2019-03-29T19:17:01.765Z,14.10
2019-03-29T19:19:50.751Z,14.10
2019-03-29T19:22:40.020Z,14.00
2019-03-29T19:25:29.258Z,13.90
2019-03-29T19:28:18.526Z,13.80
2019-03-29T19:31:07.275Z,13.70
2019-03-29T19:33:56.787Z,13.70
2019-03-29T19:36:45.557Z,13.70
2019-03-29T19:39:34.469Z,13.60
2019-03-29T19:42:22.875Z,13.50
2019-03-29T19:45:12.364Z,13.40
2019-03-29T19:48:01.135Z,13.30
2019-03-29T19:50:49.740Z,13.10
2019-03-29T19:53:38.359Z,13.10
2019-03-29T19:56:27.531Z,13.00
2019-03-29T19:59:16.146Z,12.90
2019-03-29T20:02:05.051Z,12.80
2019-03-29T20:04:54.537Z,12.80
2019-03-29T20:07:43.211Z,12.70
2019-03-29T20:10:32.230Z,12.70
2019-03-29T20:13:21.504Z,12.70
2019-03-29T20:16:10.624Z,12.60
2019-03-29T20:18:59.734Z,12.50
2019-03-29T20:21:48.179Z,12.50
2019-03-29T20:24:37.103Z,12.50
2019-03-29T20:27:25.814Z,12.50
2019-03-29T20:30:14.702Z,12.50
2019-03-29T20:33:03.774Z,12.40
2019-03-29T20:35:52.558Z,12.30
2019-03-29T20:38:41.251Z,12.30
2019-03-29T20:41:30.359Z,12.30
2019-03-29T20:44:19.148Z,12.20
2019-03-29T20:47:07.845Z,12.10
2019-03-29T20:49:56.875Z,12.20
2019-03-29T20:52:45.885Z,12.00
2019-03-29T20:55:34.834Z,11.90
2019-03-29T20:58:22.927Z,11.90
2019-03-29T21:01:11.472Z,11.80
2019-03-29T21:04:00.102Z,11.80
2019-03-29T21:06:48.907Z,11.70
2019-03-29T21:09:38.209Z,11.60
2019-03-29T21:12:26.587Z,11.50
2019-03-29T21:15:15.424Z,11.50
2019-03-29T21:18:04.125Z,11.40
2019-03-29T21:20:53.187Z,11.40
2019-03-29T21:23:41.940Z,11.30
2019-03-29T21:26:30.968Z,11.20
2019-03-29T21:29:19.971Z,11.20
2019-03-29T21:32:09.102Z,11.10
2019-03-29T21:34:58.579Z,11.10
2019-03-29T21:37:47.228Z,11.10
2019-03-29T21:40:36.094Z,11.00
2019-03-29T21:43:25.345Z,11.10
2019-03-29T21:46:14.215Z,11.10
2019-03-29T21:49:03.609Z,11.10
2019-03-29T21:51:52.551Z,11.00
2019-03-29T21:54:41.673Z,10.90
2019-03-29T21:57:30.097Z,10.80
2019-03-29T22:00:19.191Z,10.80
2019-03-29T22:03:08.326Z,10.70
2019-03-29T22:05:57.599Z,10.70
2019-03-29T22:08:46.513Z,10.70
2019-03-29T22:11:35.148Z,10.60
2019-03-29T22:14:23.502Z,10.60
2019-03-29T22:17:11.997Z,10.60
2019-03-29T22:20:00.727Z,10.50
2019-03-29T22:22:49.456Z,10.40
2019-03-29T22:25:38.544Z,10.20
2019-03-29T22:28:26.901Z,10.20
2019-03-29T22:31:15.809Z,10.20
2019-03-29T22:34:04.486Z,10.10
2019-03-29T22:36:53.372Z,10.10
2019-03-29T22:39:42.124Z,10.10
2019-03-29T22:42:30.624Z,10.10
2019-03-29T22:45:18.940Z,10.10
2019-03-29T22:48:07.200Z,9.90
2019-03-29T22:50:56.003Z,9.90
2019-03-29T22:53:44.831Z,9.80
2019-03-29T22:56:33.523Z,9.70
2019-03-29T22:59:22.116Z,9.70
2019-03-29T23:02:11.091Z,9.70
2019-03-29T23:04:59.543Z,9.60
2019-03-29T23:07:48.027Z,9.60
2019-03-29T23:10:37.234Z,9.60
2019-03-29T23:13:25.459Z,9.60
2019-03-29T23:16:14.408Z,9.50
2019-03-29T23:19:06.638Z,9.50
2019-03-29T23:21:52.764Z,9.50
2019-03-29T23:24:41.728Z,9.40
2019-03-29T23:27:30.835Z,9.30
2019-03-29T23:30:20.211Z,9.40
2019-03-29T23:33:08.844Z,9.30
2019-03-29T23:35:57.939Z,9.20
2019-03-29T23:38:46.393Z,9.20
2019-03-29T23:41:34.763Z,9.20
2019-03-29T23:44:23.403Z,9.20
2019-03-29T23:47:12.586Z,9.20
2019-03-29T23:50:00.696Z,9.10
2019-03-29T23:52:50.011Z,9.10
2019-03-29T23:55:38.564Z,9.10
2019-03-29T23:58:27.496Z,9.10
